sensor_id;sensor_type;location;lat;lon;timestamp;temperature;humidity
63383;DHT22;49512;48.744;9.176;2023-02-03T00:01:34;17.40;81.00
63383;DHT22;49512;48.744;9.176;2023-02-03T00:03:59;17.40;80.50
63383;DHT22;49512;48.744;9.176;2023-02-03T00:06:25;17.40;81.60
63383;DHT22;49512;48.744;9.176;2023-02-03T00:08:54;17.40;81.90
63383;DHT22;49512;48.744;9.176;2023-02-03T00:11:20;17.40;81.90
63383;DHT22;49512;48.744;9.176;2023-02-03T00:13:46;17.40;80.60
63383;DHT22;49512;48.744;9.176;2023-02-03T00:16:11;17.30;80.80
63383;DHT22;49512;48.744;9.176;2023-02-03T00:18:37;17.30;81.20
63383;DHT22;49512;48.744;9.176;2023-02-03T00:21:03;17.30;81.50
63383;DHT22;49512;48.744;9.176;2023-02-03T00:23:29;17.30;82.10
63383;DHT22;49512;48.744;9.176;2023-02-03T00:25:56;17.30;82.00
63383;DHT22;49512;48.744;9.176;2023-02-03T00:28:22;17.30;81.50
63383;DHT22;49512;48.744;9.176;2023-02-03T00:30:47;17.30;81.20
63383;DHT22;49512;48.744;9.176;2023-02-03T00:33:13;17.40;81.30
63383;DHT22;49512;48.744;9.176;2023-02-03T00:35:39;17.30;81.40
63383;DHT22;49512;48.744;9.176;2023-02-03T00:38:04;17.30;81.10
63383;DHT22;49512;48.744;9.176;2023-02-03T00:40:30;17.40;80.80
63383;DHT22;49512;48.744;9.176;2023-02-03T00:42:55;17.40;81.20
63383;DHT22;49512;48.744;9.176;2023-02-03T00:45:21;17.40;80.90
63383;DHT22;49512;48.744;9.176;2023-02-03T00:47:47;17.30;80.80
63383;DHT22;49512;48.744;9.176;2023-02-03T00:50:12;17.30;80.90
63383;DHT22;49512;48.744;9.176;2023-02-03T00:52:38;17.30;80.90
63383;DHT22;49512;48.744;9.176;2023-02-03T00:55:04;17.30;80.50
63383;DHT22;49512;48.744;9.176;2023-02-03T00:57:29;17.30;80.40
63383;DHT22;49512;48.744;9.176;2023-02-03T00:59:55;17.30;80.20
63383;DHT22;49512;48.744;9.176;2023-02-03T01:02:22;17.30;80.60
63383;DHT22;49512;48.744;9.176;2023-02-03T01:04:47;17.30;80.60
63383;DHT22;49512;48.744;9.176;2023-02-03T01:07:13;17.30;80.60
63383;DHT22;49512;48.744;9.176;2023-02-03T01:09:39;17.30;79.80
63383;DHT22;49512;48.744;9.176;2023-02-03T01:12:04;17.30;80.00
63383;DHT22;49512;48.744;9.176;2023-02-03T01:14:30;17.30;79.70
63383;DHT22;49512;48.744;9.176;2023-02-03T01:16:56;17.20;79.60
63383;DHT22;49512;48.744;9.176;2023-02-03T01:19:22;17.30;79.90
63383;DHT22;49512;48.744;9.176;2023-02-03T01:21:47;17.30;79.60
63383;DHT22;49512;48.744;9.176;2023-02-03T01:24:13;17.30;79.50
63383;DHT22;49512;48.744;9.176;2023-02-03T01:26:41;17.30;80.20
63383;DHT22;49512;48.744;9.176;2023-02-03T01:29:07;17.20;80.30
63383;DHT22;49512;48.744;9.176;2023-02-03T01:31:34;17.30;80.70
63383;DHT22;49512;48.744;9.176;2023-02-03T01:34:01;17.20;80.50
63383;DHT22;49512;48.744;9.176;2023-02-03T01:36:27;17.20;80.30
63383;DHT22;49512;48.744;9.176;2023-02-03T01:38:54;17.30;80.60
63383;DHT22;49512;48.744;9.176;2023-02-03T01:41:21;17.20;80.90
63383;DHT22;49512;48.744;9.176;2023-02-03T01:43:48;17.20;80.80
63383;DHT22;49512;48.744;9.176;2023-02-03T01:48:52;17.20;81.10
63383;DHT22;49512;48.744;9.176;2023-02-03T01:51:18;17.20;81.40
63383;DHT22;49512;48.744;9.176;2023-02-03T01:53:44;17.30;81.00
63383;DHT22;49512;48.744;9.176;2023-02-03T01:56:10;17.20;81.00
63383;DHT22;49512;48.744;9.176;2023-02-03T01:58:37;17.20;81.40
63383;DHT22;49512;48.744;9.176;2023-02-03T02:01:03;17.20;81.30
63383;DHT22;49512;48.744;9.176;2023-02-03T02:03:51;17.20;81.30
63383;DHT22;49512;48.744;9.176;2023-02-03T02:06:15;17.20;81.40
63383;DHT22;49512;48.744;9.176;2023-02-03T02:08:41;17.20;80.70
63383;DHT22;49512;48.744;9.176;2023-02-03T02:11:08;17.20;80.10
63383;DHT22;49512;48.744;9.176;2023-02-03T02:13:34;17.20;80.20
63383;DHT22;49512;48.744;9.176;2023-02-03T02:16:17;17.20;80.50
63383;DHT22;49512;48.744;9.176;2023-02-03T02:19:29;17.20;80.60
63383;DHT22;49512;48.744;9.176;2023-02-03T02:21:42;17.20;80.00
63383;DHT22;49512;48.744;9.176;2023-02-03T02:26:49;17.20;80.00
63383;DHT22;49512;48.744;9.176;2023-02-03T02:45:21;17.20;80.00
63383;DHT22;49512;48.744;9.176;2023-02-03T02:47:51;17.20;79.70
63383;DHT22;49512;48.744;9.176;2023-02-03T02:50:21;17.20;80.00
63383;DHT22;49512;48.744;9.176;2023-02-03T02:52:47;17.20;79.30
63383;DHT22;49512;48.744;9.176;2023-02-03T02:55:16;17.20;79.90
63383;DHT22;49512;48.744;9.176;2023-02-03T02:57:43;17.20;79.70
63383;DHT22;49512;48.744;9.176;2023-02-03T03:00:09;17.20;79.70
63383;DHT22;49512;48.744;9.176;2023-02-03T03:02:35;17.20;80.50
63383;DHT22;49512;48.744;9.176;2023-02-03T03:05:04;17.10;80.30
63383;DHT22;49512;48.744;9.176;2023-02-03T03:07:34;17.20;80.20
63383;DHT22;49512;48.744;9.176;2023-02-03T03:10:04;17.20;80.30
63383;DHT22;49512;48.744;9.176;2023-02-03T03:12:35;17.10;80.70
63383;DHT22;49512;48.744;9.176;2023-02-03T03:15:09;17.10;80.70
63383;DHT22;49512;48.744;9.176;2023-02-03T03:17:43;17.10;81.10
63383;DHT22;49512;48.744;9.176;2023-02-03T03:20:19;17.10;81.00
63383;DHT22;49512;48.744;9.176;2023-02-03T03:22:47;17.20;81.00
63383;DHT22;49512;48.744;9.176;2023-02-03T03:25:18;17.10;81.00
63383;DHT22;49512;48.744;9.176;2023-02-03T03:27:50;17.10;81.00
63383;DHT22;49512;48.744;9.176;2023-02-03T03:30:20;17.10;81.00
63383;DHT22;49512;48.744;9.176;2023-02-03T03:32:47;17.20;81.10
63383;DHT22;49512;48.744;9.176;2023-02-03T03:35:13;17.10;80.80
63383;DHT22;49512;48.744;9.176;2023-02-03T03:37:50;17.10;81.00
63383;DHT22;49512;48.744;9.176;2023-02-03T03:40:28;17.10;80.90
63383;DHT22;49512;48.744;9.176;2023-02-03T03:42:58;17.20;80.50
63383;DHT22;49512;48.744;9.176;2023-02-03T03:50:27;17.10;80.60
63383;DHT22;49512;48.744;9.176;2023-02-03T03:52:53;17.20;80.70
63383;DHT22;49512;48.744;9.176;2023-02-03T03:55:19;17.10;80.80
63383;DHT22;49512;48.744;9.176;2023-02-03T03:57:57;17.00;80.50
63383;DHT22;49512;48.744;9.176;2023-02-03T04:00:23;17.20;80.90
63383;DHT22;49512;48.744;9.176;2023-02-03T04:02:50;17.10;80.70
63383;DHT22;49512;48.744;9.176;2023-02-03T04:05:16;17.10;80.60
63383;DHT22;49512;48.744;9.176;2023-02-03T04:07:45;17.10;80.70
63383;DHT22;49512;48.744;9.176;2023-02-03T04:10:13;17.10;80.90
63383;DHT22;49512;48.744;9.176;2023-02-03T04:12:40;17.10;80.90
63383;DHT22;49512;48.744;9.176;2023-02-03T04:15:05;17.10;81.00
63383;DHT22;49512;48.744;9.176;2023-02-03T04:17:31;17.10;80.90
63383;DHT22;49512;48.744;9.176;2023-02-03T04:19:58;17.10;80.90
63383;DHT22;49512;48.744;9.176;2023-02-03T04:22:23;17.10;81.00
63383;DHT22;49512;48.744;9.176;2023-02-03T04:24:49;17.10;81.10
63383;DHT22;49512;48.744;9.176;2023-02-03T04:27:14;17.10;81.10
63383;DHT22;49512;48.744;9.176;2023-02-03T04:29:40;17.10;81.00
63383;DHT22;49512;48.744;9.176;2023-02-03T04:32:05;17.10;81.30
63383;DHT22;49512;48.744;9.176;2023-02-03T04:34:31;17.10;81.40
63383;DHT22;49512;48.744;9.176;2023-02-03T04:36:56;17.10;81.50
63383;DHT22;49512;48.744;9.176;2023-02-03T04:39:22;17.10;81.60
63383;DHT22;49512;48.744;9.176;2023-02-03T04:41:47;17.10;81.50
63383;DHT22;49512;48.744;9.176;2023-02-03T04:44:13;17.10;81.70
63383;DHT22;49512;48.744;9.176;2023-02-03T04:46:38;17.10;81.50
63383;DHT22;49512;48.744;9.176;2023-02-03T04:49:04;17.00;81.60
63383;DHT22;49512;48.744;9.176;2023-02-03T04:51:29;17.10;81.80
63383;DHT22;49512;48.744;9.176;2023-02-03T04:53:55;17.10;81.70
63383;DHT22;49512;48.744;9.176;2023-02-03T04:56:20;17.10;81.90
63383;DHT22;49512;48.744;9.176;2023-02-03T04:58:46;17.10;81.70
63383;DHT22;49512;48.744;9.176;2023-02-03T05:01:11;17.10;81.80
63383;DHT22;49512;48.744;9.176;2023-02-03T05:03:37;17.10;81.60
63383;DHT22;49512;48.744;9.176;2023-02-03T05:06:02;17.10;81.60
63383;DHT22;49512;48.744;9.176;2023-02-03T05:08:28;17.10;81.40
63383;DHT22;49512;48.744;9.176;2023-02-03T05:10:54;17.10;81.50
63383;DHT22;49512;48.744;9.176;2023-02-03T05:13:20;17.10;81.40
63383;DHT22;49512;48.744;9.176;2023-02-03T05:15:45;17.10;81.50
63383;DHT22;49512;48.744;9.176;2023-02-03T05:18:11;17.10;81.40
63383;DHT22;49512;48.744;9.176;2023-02-03T05:20:36;17.10;81.40
63383;DHT22;49512;48.744;9.176;2023-02-03T05:23:02;17.10;81.50
63383;DHT22;49512;48.744;9.176;2023-02-03T05:25:27;17.10;81.40
63383;DHT22;49512;48.744;9.176;2023-02-03T05:27:53;17.10;81.50
63383;DHT22;49512;48.744;9.176;2023-02-03T05:30:18;17.10;81.40
63383;DHT22;49512;48.744;9.176;2023-02-03T05:32:44;17.10;81.40
63383;DHT22;49512;48.744;9.176;2023-02-03T05:35:09;17.10;81.40
63383;DHT22;49512;48.744;9.176;2023-02-03T05:37:34;17.10;81.30
63383;DHT22;49512;48.744;9.176;2023-02-03T05:40:00;17.10;81.20
63383;DHT22;49512;48.744;9.176;2023-02-03T05:42:47;17.10;81.20
63383;DHT22;49512;48.744;9.176;2023-02-03T05:45:12;17.10;81.20
63383;DHT22;49512;48.744;9.176;2023-02-03T05:47:38;17.10;81.30
63383;DHT22;49512;48.744;9.176;2023-02-03T05:50:03;17.10;81.00
63383;DHT22;49512;48.744;9.176;2023-02-03T05:52:29;17.10;81.00
63383;DHT22;49512;48.744;9.176;2023-02-03T05:54:54;17.00;80.80
63383;DHT22;49512;48.744;9.176;2023-02-03T05:57:20;17.10;81.00
63383;DHT22;49512;48.744;9.176;2023-02-03T05:59:45;17.10;80.60
63383;DHT22;49512;48.744;9.176;2023-02-03T06:02:11;17.10;80.50
63383;DHT22;49512;48.744;9.176;2023-02-03T06:04:36;17.10;80.90
63383;DHT22;49512;48.744;9.176;2023-02-03T06:07:02;17.10;80.90
63383;DHT22;49512;48.744;9.176;2023-02-03T06:09:27;17.10;81.10
63383;DHT22;49512;48.744;9.176;2023-02-03T06:11:53;17.10;81.10
63383;DHT22;49512;48.744;9.176;2023-02-03T06:14:18;17.10;81.20
63383;DHT22;49512;48.744;9.176;2023-02-03T06:16:44;17.00;81.10
63383;DHT22;49512;48.744;9.176;2023-02-03T06:19:09;17.00;81.40
63383;DHT22;49512;48.744;9.176;2023-02-03T06:21:35;17.00;81.50
63383;DHT22;49512;48.744;9.176;2023-02-03T06:24:00;17.00;81.50
63383;DHT22;49512;48.744;9.176;2023-02-03T06:26:26;17.30;81.80
63383;DHT22;49512;48.744;9.176;2023-02-03T06:28:52;16.90;81.90
63383;DHT22;49512;48.744;9.176;2023-02-03T06:31:17;16.70;82.80
63383;DHT22;49512;48.744;9.176;2023-02-03T06:33:42;17.20;83.90
63383;DHT22;49512;48.744;9.176;2023-02-03T06:36:08;17.20;84.20
63383;DHT22;49512;48.744;9.176;2023-02-03T06:38:34;17.20;84.50
63383;DHT22;49512;48.744;9.176;2023-02-03T06:40:59;17.30;86.00
63383;DHT22;49512;48.744;9.176;2023-02-03T06:43:25;17.20;85.90
63383;DHT22;49512;48.744;9.176;2023-02-03T06:45:50;17.10;86.30
63383;DHT22;49512;48.744;9.176;2023-02-03T06:48:16;17.10;86.60
63383;DHT22;49512;48.744;9.176;2023-02-03T06:50:42;17.00;87.30
63383;DHT22;49512;48.744;9.176;2023-02-03T06:53:07;17.00;87.20
63383;DHT22;49512;48.744;9.176;2023-02-03T06:55:33;16.90;87.50
63383;DHT22;49512;48.744;9.176;2023-02-03T06:57:58;16.90;87.50
63383;DHT22;49512;48.744;9.176;2023-02-03T07:00:24;16.90;88.30
63383;DHT22;49512;48.744;9.176;2023-02-03T07:02:53;16.90;88.30
63383;DHT22;49512;48.744;9.176;2023-02-03T07:05:19;16.90;88.40
63383;DHT22;49512;48.744;9.176;2023-02-03T07:07:45;16.80;88.20
63383;DHT22;49512;48.744;9.176;2023-02-03T07:10:10;16.80;88.50
63383;DHT22;49512;48.744;9.176;2023-02-03T07:12:36;16.80;88.10
63383;DHT22;49512;48.744;9.176;2023-02-03T07:15:02;16.70;87.50
63383;DHT22;49512;48.744;9.176;2023-02-03T07:17:28;16.80;88.30
63383;DHT22;49512;48.744;9.176;2023-02-03T07:19:53;16.80;87.30
63383;DHT22;49512;48.744;9.176;2023-02-03T07:22:19;16.80;87.00
63383;DHT22;49512;48.744;9.176;2023-02-03T07:24:44;16.70;87.00
63383;DHT22;49512;48.744;9.176;2023-02-03T07:27:10;16.70;87.10
63383;DHT22;49512;48.744;9.176;2023-02-03T07:29:35;16.80;87.30
63383;DHT22;49512;48.744;9.176;2023-02-03T07:32:01;17.00;87.40
63383;DHT22;49512;48.744;9.176;2023-02-03T07:34:27;16.90;87.30
63383;DHT22;49512;48.744;9.176;2023-02-03T07:36:52;16.90;86.80
63383;DHT22;49512;48.744;9.176;2023-02-03T07:39:17;17.00;86.60
63383;DHT22;49512;48.744;9.176;2023-02-03T07:41:43;17.20;88.30
63383;DHT22;49512;48.744;9.176;2023-02-03T07:44:08;17.20;88.20
63383;DHT22;49512;48.744;9.176;2023-02-03T07:46:34;17.10;86.60
63383;DHT22;49512;48.744;9.176;2023-02-03T07:49:04;17.10;86.70
63383;DHT22;49512;48.744;9.176;2023-02-03T07:51:30;17.10;86.90
63383;DHT22;49512;48.744;9.176;2023-02-03T07:53:56;17.10;86.90
63383;DHT22;49512;48.744;9.176;2023-02-03T07:56:21;17.20;87.70
63383;DHT22;49512;48.744;9.176;2023-02-03T07:58:47;17.10;86.60
63383;DHT22;49512;48.744;9.176;2023-02-03T08:01:14;17.10;86.70
63383;DHT22;49512;48.744;9.176;2023-02-03T08:03:40;17.10;86.10
63383;DHT22;49512;48.744;9.176;2023-02-03T08:06:06;17.10;86.30
63383;DHT22;49512;48.744;9.176;2023-02-03T08:08:32;17.10;86.10
63383;DHT22;49512;48.744;9.176;2023-02-03T08:10:57;17.20;86.80
63383;DHT22;49512;48.744;9.176;2023-02-03T08:13:23;17.10;86.90
63383;DHT22;49512;48.744;9.176;2023-02-03T08:15:48;17.10;87.40
63383;DHT22;49512;48.744;9.176;2023-02-03T08:18:14;17.10;87.40
63383;DHT22;49512;48.744;9.176;2023-02-03T08:20:39;17.20;87.50
63383;DHT22;49512;48.744;9.176;2023-02-03T08:23:05;17.10;87.40
63383;DHT22;49512;48.744;9.176;2023-02-03T08:25:30;17.10;86.90
63383;DHT22;49512;48.744;9.176;2023-02-03T08:27:56;17.20;87.00
63383;DHT22;49512;48.744;9.176;2023-02-03T08:30:22;17.20;85.80
63383;DHT22;49512;48.744;9.176;2023-02-03T08:32:47;17.20;84.90
63383;DHT22;49512;48.744;9.176;2023-02-03T08:35:13;17.20;84.90
63383;DHT22;49512;48.744;9.176;2023-02-03T08:37:38;17.30;84.40
63383;DHT22;49512;48.744;9.176;2023-02-03T08:40:04;17.30;84.00
63383;DHT22;49512;48.744;9.176;2023-02-03T08:42:30;17.30;87.50
63383;DHT22;49512;48.744;9.176;2023-02-03T08:44:56;17.20;88.80
63383;DHT22;49512;48.744;9.176;2023-02-03T08:47:22;17.20;89.90
63383;DHT22;49512;48.744;9.176;2023-02-03T08:49:47;17.20;90.20
63383;DHT22;49512;48.744;9.176;2023-02-03T08:52:13;17.40;91.20
63383;DHT22;49512;48.744;9.176;2023-02-03T08:54:38;17.40;90.80
63383;DHT22;49512;48.744;9.176;2023-02-03T08:57:04;17.40;90.90
63383;DHT22;49512;48.744;9.176;2023-02-03T08:59:30;17.40;92.60
63383;DHT22;49512;48.744;9.176;2023-02-03T09:01:56;17.30;92.80
63383;DHT22;49512;48.744;9.176;2023-02-03T09:04:24;17.30;93.00
63383;DHT22;49512;48.744;9.176;2023-02-03T09:06:50;17.30;92.90
63383;DHT22;49512;48.744;9.176;2023-02-03T09:09:15;17.40;93.90
63383;DHT22;49512;48.744;9.176;2023-02-03T09:11:41;17.40;93.20
63383;DHT22;49512;48.744;9.176;2023-02-03T09:14:07;17.30;93.60
63383;DHT22;49512;48.744;9.176;2023-02-03T09:16:33;17.30;93.30
63383;DHT22;49512;48.744;9.176;2023-02-03T09:18:58;17.30;93.30
63383;DHT22;49512;48.744;9.176;2023-02-03T09:21:24;17.30;93.30
63383;DHT22;49512;48.744;9.176;2023-02-03T09:23:49;17.30;93.40
63383;DHT22;49512;48.744;9.176;2023-02-03T09:26:15;17.40;93.20
63383;DHT22;49512;48.744;9.176;2023-02-03T09:28:41;17.40;93.10
63383;DHT22;49512;48.744;9.176;2023-02-03T09:31:07;17.40;93.20
63383;DHT22;49512;48.744;9.176;2023-02-03T09:33:33;17.40;93.20
63383;DHT22;49512;48.744;9.176;2023-02-03T09:35:59;17.40;93.20
63383;DHT22;49512;48.744;9.176;2023-02-03T09:38:25;17.40;93.10
63383;DHT22;49512;48.744;9.176;2023-02-03T09:40:52;17.40;93.00
63383;DHT22;49512;48.744;9.176;2023-02-03T09:43:22;17.40;92.90
63383;DHT22;49512;48.744;9.176;2023-02-03T09:45:53;17.40;92.70
63383;DHT22;49512;48.744;9.176;2023-02-03T09:48:24;17.40;92.60
63383;DHT22;49512;48.744;9.176;2023-02-03T09:50:53;17.40;92.50
63383;DHT22;49512;48.744;9.176;2023-02-03T09:53:22;17.40;92.40
63383;DHT22;49512;48.744;9.176;2023-02-03T09:55:49;17.40;92.30
63383;DHT22;49512;48.744;9.176;2023-02-03T09:58:15;17.40;92.30
63383;DHT22;49512;48.744;9.176;2023-02-03T10:05:56;17.50;92.30
63383;DHT22;49512;48.744;9.176;2023-02-03T10:10:58;17.40;91.40
63383;DHT22;49512;48.744;9.176;2023-02-03T10:16:12;17.50;91.50
63383;DHT22;49512;48.744;9.176;2023-02-03T10:18:44;17.50;91.40
63383;DHT22;49512;48.744;9.176;2023-02-03T10:21:13;17.50;91.10
63383;DHT22;49512;48.744;9.176;2023-02-03T10:23:40;17.40;90.50
63383;DHT22;49512;48.744;9.176;2023-02-03T10:26:09;17.50;90.80
63383;DHT22;49512;48.744;9.176;2023-02-03T10:28:38;17.50;90.60
63383;DHT22;49512;48.744;9.176;2023-02-03T10:31:07;17.50;90.50
63383;DHT22;49512;48.744;9.176;2023-02-03T10:33:37;17.50;90.10
63383;DHT22;49512;48.744;9.176;2023-02-03T10:36:11;17.40;90.00
63383;DHT22;49512;48.744;9.176;2023-02-03T10:38:43;17.40;89.70
63383;DHT22;49512;48.744;9.176;2023-02-03T10:41:10;17.40;89.50
63383;DHT22;49512;48.744;9.176;2023-02-03T10:43:36;17.40;89.40
63383;DHT22;49512;48.744;9.176;2023-02-03T10:46:18;17.40;90.10
63383;DHT22;49512;48.744;9.176;2023-02-03T10:48:44;17.50;90.00
63383;DHT22;49512;48.744;9.176;2023-02-03T10:51:11;17.40;89.90
63383;DHT22;49512;48.744;9.176;2023-02-03T10:53:39;17.50;88.70
63383;DHT22;49512;48.744;9.176;2023-02-03T10:56:09;17.40;89.60
63383;DHT22;49512;48.744;9.176;2023-02-03T10:58:36;17.50;89.60
63383;DHT22;49512;48.744;9.176;2023-02-03T11:03:31;17.60;87.90
63383;DHT22;49512;48.744;9.176;2023-02-03T11:06:04;17.60;88.60
63383;DHT22;49512;48.744;9.176;2023-02-03T11:08:30;17.60;88.30
63383;DHT22;49512;48.744;9.176;2023-02-03T11:11:09;17.60;87.50
63383;DHT22;49512;48.744;9.176;2023-02-03T11:13:37;17.50;86.50
63383;DHT22;49512;48.744;9.176;2023-02-03T11:16:08;17.50;87.20
63383;DHT22;49512;48.744;9.176;2023-02-03T11:21:08;17.50;85.70
63383;DHT22;49512;48.744;9.176;2023-02-03T11:23:34;17.40;85.70
63383;DHT22;49512;48.744;9.176;2023-02-03T11:26:07;17.50;85.50
63383;DHT22;49512;48.744;9.176;2023-02-03T11:28:34;17.50;85.20
63383;DHT22;49512;48.744;9.176;2023-02-03T11:31:00;17.40;85.40
63383;DHT22;49512;48.744;9.176;2023-02-03T11:33:26;17.30;85.00
63383;DHT22;49512;48.744;9.176;2023-02-03T11:35:53;17.20;85.90
63383;DHT22;49512;48.744;9.176;2023-02-03T11:38:32;17.20;86.60
63383;DHT22;49512;48.744;9.176;2023-02-03T11:41:01;17.30;85.30
63383;DHT22;49512;48.744;9.176;2023-02-03T11:43:26;17.40;84.90
63383;DHT22;49512;48.744;9.176;2023-02-03T11:45:58;17.40;83.80
63383;DHT22;49512;48.744;9.176;2023-02-03T11:48:28;17.40;82.90
63383;DHT22;49512;48.744;9.176;2023-02-03T11:58:45;17.50;80.80
63383;DHT22;49512;48.744;9.176;2023-02-03T12:04:01;17.50;80.20
63383;DHT22;49512;48.744;9.176;2023-02-03T12:06:35;17.50;80.30
63383;DHT22;49512;48.744;9.176;2023-02-03T12:11:45;17.60;79.50
63383;DHT22;49512;48.744;9.176;2023-02-03T12:16:51;17.60;80.70
63383;DHT22;49512;48.744;9.176;2023-02-03T12:22:14;17.60;79.50
63383;DHT22;49512;48.744;9.176;2023-02-03T12:27:30;17.60;80.30
63383;DHT22;49512;48.744;9.176;2023-02-03T12:30:00;17.60;78.90
63383;DHT22;49512;48.744;9.176;2023-02-03T12:32:28;17.50;79.20
63383;DHT22;49512;48.744;9.176;2023-02-03T12:37:41;17.50;80.00
63383;DHT22;49512;48.744;9.176;2023-02-03T12:40:34;17.50;79.60
63383;DHT22;49512;48.744;9.176;2023-02-03T12:42:55;17.50;79.30
63383;DHT22;49512;48.744;9.176;2023-02-03T12:45:28;17.40;79.00
63383;DHT22;49512;48.744;9.176;2023-02-03T12:53:17;17.50;81.20
63383;DHT22;49512;48.744;9.176;2023-02-03T12:55:46;17.50;79.50
63383;DHT22;49512;48.744;9.176;2023-02-03T12:58:19;17.50;82.10
63383;DHT22;49512;48.744;9.176;2023-02-03T13:03:27;17.60;80.10
63383;DHT22;49512;48.744;9.176;2023-02-03T13:09:08;18.00;82.70
63383;DHT22;49512;48.744;9.176;2023-02-03T13:11:42;18.10;82.60
63383;DHT22;49512;48.744;9.176;2023-02-03T13:14:16;18.20;80.70
63383;DHT22;49512;48.744;9.176;2023-02-03T13:16:43;18.50;81.60
63383;DHT22;49512;48.744;9.176;2023-02-03T13:19:23;18.50;75.00
63383;DHT22;49512;48.744;9.176;2023-02-03T13:21:50;18.60;74.30
63383;DHT22;49512;48.744;9.176;2023-02-03T13:24:17;18.60;73.90
63383;DHT22;49512;48.744;9.176;2023-02-03T13:26:46;18.60;73.80
63383;DHT22;49512;48.744;9.176;2023-02-03T13:29:19;18.70;73.00
63383;DHT22;49512;48.744;9.176;2023-02-03T13:31:51;18.70;72.70
63383;DHT22;49512;48.744;9.176;2023-02-03T13:39:16;18.30;67.40
63383;DHT22;49512;48.744;9.176;2023-02-03T13:41:46;18.70;74.20
63383;DHT22;49512;48.744;9.176;2023-02-03T13:44:15;18.70;76.20
63383;DHT22;49512;48.744;9.176;2023-02-03T13:46:41;18.70;76.50
63383;DHT22;49512;48.744;9.176;2023-02-03T13:49:15;18.70;77.40
63383;DHT22;49512;48.744;9.176;2023-02-03T13:51:46;18.80;79.90
63383;DHT22;49512;48.744;9.176;2023-02-03T13:54:33;18.80;78.30
63383;DHT22;49512;48.744;9.176;2023-02-03T13:56:58;18.70;75.20
63383;DHT22;49512;48.744;9.176;2023-02-03T14:02:43;18.50;77.70
63383;DHT22;49512;48.744;9.176;2023-02-03T14:20:40;18.00;77.90
63383;DHT22;49512;48.744;9.176;2023-02-03T14:23:15;18.00;78.30
63383;DHT22;49512;48.744;9.176;2023-02-03T14:25:43;18.00;78.60
63383;DHT22;49512;48.744;9.176;2023-02-03T14:28:11;17.60;73.00
63383;DHT22;49512;48.744;9.176;2023-02-03T14:33:22;16.90;67.00
63383;DHT22;49512;48.744;9.176;2023-02-03T14:36:24;16.70;67.20
63383;DHT22;49512;48.744;9.176;2023-02-03T14:38:49;16.60;66.10
63383;DHT22;49512;48.744;9.176;2023-02-03T14:41:16;16.50;66.20
63383;DHT22;49512;48.744;9.176;2023-02-03T14:43:47;16.40;66.10
63383;DHT22;49512;48.744;9.176;2023-02-03T14:59:28;17.90;76.70
63383;DHT22;49512;48.744;9.176;2023-02-03T15:02:07;17.90;75.20
63383;DHT22;49512;48.744;9.176;2023-02-03T15:04:33;17.90;75.30
63383;DHT22;49512;48.744;9.176;2023-02-03T15:06:59;17.80;76.00
63383;DHT22;49512;48.744;9.176;2023-02-03T15:09:44;17.90;76.80
63383;DHT22;49512;48.744;9.176;2023-02-03T15:12:21;17.80;75.70
63383;DHT22;49512;48.744;9.176;2023-02-03T15:14:47;17.80;75.80
63383;DHT22;49512;48.744;9.176;2023-02-03T15:17:23;17.80;75.40
63383;DHT22;49512;48.744;9.176;2023-02-03T15:19:49;17.80;76.00
63383;DHT22;49512;48.744;9.176;2023-02-03T15:22:25;17.90;76.70
63383;DHT22;49512;48.744;9.176;2023-02-03T15:24:52;17.90;76.70
63383;DHT22;49512;48.744;9.176;2023-02-03T15:27:21;17.90;76.60
63383;DHT22;49512;48.744;9.176;2023-02-03T15:29:47;18.10;76.50
63383;DHT22;49512;48.744;9.176;2023-02-03T15:32:24;18.10;76.00
63383;DHT22;49512;48.744;9.176;2023-02-03T15:34:51;18.10;76.00
63383;DHT22;49512;48.744;9.176;2023-02-03T15:40:17;18.10;77.60
63383;DHT22;49512;48.744;9.176;2023-02-03T15:45:03;18.10;77.80
63383;DHT22;49512;48.744;9.176;2023-02-03T15:47:36;18.10;79.80
63383;DHT22;49512;48.744;9.176;2023-02-03T15:50:07;18.00;80.60
63383;DHT22;49512;48.744;9.176;2023-02-03T15:52:39;18.00;82.20
63383;DHT22;49512;48.744;9.176;2023-02-03T15:55:13;17.90;81.90
63383;DHT22;49512;48.744;9.176;2023-02-03T15:57:41;17.90;82.30
63383;DHT22;49512;48.744;9.176;2023-02-03T16:00:10;17.80;82.00
63383;DHT22;49512;48.744;9.176;2023-02-03T16:02:42;17.90;81.80
63383;DHT22;49512;48.744;9.176;2023-02-03T16:05:19;17.80;81.60
63383;DHT22;49512;48.744;9.176;2023-02-03T16:07:45;17.80;81.00
63383;DHT22;49512;48.744;9.176;2023-02-03T16:10:24;17.80;81.50
63383;DHT22;49512;48.744;9.176;2023-02-03T16:12:50;17.80;82.30
63383;DHT22;49512;48.744;9.176;2023-02-03T16:15:20;17.70;82.10
63383;DHT22;49512;48.744;9.176;2023-02-03T16:17:45;17.70;82.10
63383;DHT22;49512;48.744;9.176;2023-02-03T16:22:37;17.60;82.40
63383;DHT22;49512;48.744;9.176;2023-02-03T16:25:19;17.80;82.20
63383;DHT22;49512;48.744;9.176;2023-02-03T16:27:59;17.80;82.10
63383;DHT22;49512;48.744;9.176;2023-02-03T16:33:48;17.70;81.90
63383;DHT22;49512;48.744;9.176;2023-02-03T16:36:33;17.70;82.40
63383;DHT22;49512;48.744;9.176;2023-02-03T16:39:17;17.70;82.50
63383;DHT22;49512;48.744;9.176;2023-02-03T16:42:06;17.70;83.20
63383;DHT22;49512;48.744;9.176;2023-02-03T16:44:52;17.70;82.90
63383;DHT22;49512;48.744;9.176;2023-02-03T16:47:37;17.60;82.50
63383;DHT22;49512;48.744;9.176;2023-02-03T16:50:22;17.70;83.50
63383;DHT22;49512;48.744;9.176;2023-02-03T16:53:14;17.70;82.50
63383;DHT22;49512;48.744;9.176;2023-02-03T16:55:40;17.70;84.00
63383;DHT22;49512;48.744;9.176;2023-02-03T16:58:06;17.70;84.00
63383;DHT22;49512;48.744;9.176;2023-02-03T17:00:31;17.70;83.90
63383;DHT22;49512;48.744;9.176;2023-02-03T17:02:57;17.70;83.10
63383;DHT22;49512;48.744;9.176;2023-02-03T17:05:22;17.70;82.90
63383;DHT22;49512;48.744;9.176;2023-02-03T17:07:47;17.50;83.90
63383;DHT22;49512;48.744;9.176;2023-02-03T17:10:15;17.50;84.00
63383;DHT22;49512;48.744;9.176;2023-02-03T17:12:41;17.70;82.30
63383;DHT22;49512;48.744;9.176;2023-02-03T17:17:32;17.80;82.40
63383;DHT22;49512;48.744;9.176;2023-02-03T17:19:58;17.80;82.70
63383;DHT22;49512;48.744;9.176;2023-02-03T17:22:24;17.90;82.70
63383;DHT22;49512;48.744;9.176;2023-02-03T17:24:50;17.80;82.80
63383;DHT22;49512;48.744;9.176;2023-02-03T17:27:15;17.80;82.80
63383;DHT22;49512;48.744;9.176;2023-02-03T17:29:41;17.90;82.80
63383;DHT22;49512;48.744;9.176;2023-02-03T17:32:06;17.90;82.80
63383;DHT22;49512;48.744;9.176;2023-02-03T17:34:33;17.80;82.30
63383;DHT22;49512;48.744;9.176;2023-02-03T17:36:58;17.90;83.00
63383;DHT22;49512;48.744;9.176;2023-02-03T17:39:27;17.90;81.70
63383;DHT22;49512;48.744;9.176;2023-02-03T17:41:52;18.10;83.50
63383;DHT22;49512;48.744;9.176;2023-02-03T17:44:18;18.10;83.40
63383;DHT22;49512;48.744;9.176;2023-02-03T17:46:43;18.10;83.30